HOURLY OBS INDEX

061

Hunter

CESSNOCK AIRPORT AWS

Site: 061260
Alt: 61.0m
30km SSE of SINGLETON


  Time     Wind        Temp  DP   Baro     Rain since   Rain past  Vis(m), Cloud(base in m), Weather
  local        km/h                         9am  last   hr   10m    
Thu 18:00   SE 19/ 26  25.7 14.2  1014.0    0.0   0.0   0.0   0.0   ----- 
Thu 18:30    E 19/ 26  25.0 14.2  1014.3    0.0   0.0   0.0   0.0   ----- 
Thu 19:00  ESE 19/ 26  24.6 14.4  1014.5    0.0   0.0   0.0   0.0   ----- 
Thu 19:30  ESE 17/ 24  23.7 14.4  1014.7    0.0   0.0   0.0   0.0   ----- 
Thu 20:30   SE  9/ 11  22.1 15.0  1015.5    0.0   0.0   0.0   0.0   ----- 
Thu 21:00   SE 11/ 15  21.6 15.0  1015.6    0.0   0.0  ----   0.0   ----- 
Thu 21:30   SE  9/ 13  21.2 15.3  1015.8    0.0   0.0   0.0   0.0   ----- 
Thu 22:00  SSE  9/ 13  19.7 14.7  1015.8    0.0   0.0   0.0   0.0   ----- 
Thu 22:30    S 11/ 13  19.6 15.3  1016.0    0.0   0.0   0.0   0.0   ----- 
Thu 23:00    S 11/ 13  19.2 15.3  1015.8    0.0   0.0   0.0   0.0   ----- 
Thu 23:30    S 11/ 11  18.9 15.0  1015.5    0.0   0.0   0.0   0.0   ----- 

COORANBONG (LAKE MACQUARIE AWS)

Site: 061412
Alt: 6.0m
35km WSW of NEWCASTLE


  Time     Wind        Temp  DP   Baro     Rain since   Rain past  Vis(m), Cloud(base in m), Weather
  local        km/h                         9am  last   hr   10m    
Thu 18:00    E 11/ 22  25.5 15.2  1015.1    0.0   0.0   0.0   0.0   ----- 
Thu 18:30    E  6/ 11  24.5 15.4  1015.2    0.0   0.0   0.0   0.0   ----- 
Thu 19:00    E  7/ 11  24.1 15.1  1015.5    0.0   0.0   0.0   0.0   ----- 
Thu 19:30    E  4/  9  23.4 15.2  1015.6    0.0   0.0   0.0   0.0   ----- 
Thu 20:30    E  4/  7  22.4 16.0  1016.4    0.0   0.0   0.0   0.0   ----- 
Thu 21:00   NE  4/  7  22.1 15.9  1016.5    0.0   0.0  ----   0.0   ----- 
Thu 21:30  ENE  2/  6  21.6 15.9  1016.7    0.0   0.0   0.0   0.0   ----- 
Thu 22:00    C  0/  4  20.8 16.2  1016.7    0.0   0.0   0.0   0.0   ----- 
Thu 22:30    C  0/  0  18.9 15.8  1016.9    0.0   0.0   0.0   0.0   ----- 
Thu 23:00    C  0/  2  18.0 15.8  1016.8    0.0   0.0   0.0   0.0   ----- 
Thu 23:30    C  0/  0  17.4 15.6  1016.6    0.0   0.0   0.0   0.0   ----- 

GOSFORD AWS

Site: 061425
Alt: 7.0m
km of


  Time     Wind        Temp  DP   Baro     Rain since   Rain past  Vis(m), Cloud(base in m), Weather
  local        km/h                         9am  last   hr   10m    
Thu 18:00  ENE 15/ 24  24.5 15.1  ------    0.0   0.0   0.0   0.0   ----- 
Thu 18:30  NNE 13/ 26  23.9 15.1  ------    0.0   0.0   0.0   0.0   ----- 
Thu 19:00   NE 11/ 17  23.6 15.6  ------    0.0   0.0   0.0   0.0   ----- 
Thu 19:30  ENE 11/ 19  23.1 15.9  ------    0.0   0.0   0.0   0.0   ----- 
Thu 20:30   NE 11/ 19  22.8 16.1  ------    0.0   0.0   0.0   0.0   ----- 
Thu 21:00   NE  9/ 17  22.7 16.9  ------    0.0   0.0  ----   0.0   ----- 
Thu 21:30   NE 11/ 20  22.7 17.2  ------    0.0   0.0   0.0   0.0   ----- 
Thu 22:00   NE 11/ 20  22.6 16.6  ------    0.0   0.0   0.0   0.0   ----- 
Thu 22:30   NE  9/ 20  22.4 16.7  ------    0.0   0.0   0.0   0.0   ----- 
Thu 23:00   NE 11/ 20  22.4 16.9  ------    0.0   0.0   0.0   0.0   ----- 
Thu 23:30   NE 11/ 19  22.3 16.8  ------    0.0   0.0   0.0   0.0   ----- 

MAITLAND AIRPORT AWS

Site: 061428
Alt: 27.5m
37km NW of NEWCASTLE


  Time     Wind        Temp  DP   Baro     Rain since   Rain past  Vis(m), Cloud(base in m), Weather
  local        km/h                         9am  last   hr   10m    
Thu 18:00  ESE 24/ 33  26.0 16.0  1013.8    0.0   0.0   0.0   0.0   10000 
Thu 18:30    E 22/ 32  25.7 16.0  1014.1    0.0   0.0   0.0   0.0   10000 
Thu 19:00    E 22/ 30  24.8 15.4  1014.4    0.0   0.0   0.0   0.0   10000 
Thu 19:30    E 20/ 30  24.1 15.6  1014.7    0.0   0.0   0.0   0.0   10000 
Thu 20:30    E 15/ 19  22.6 16.6  1015.4    0.0   0.0   0.0   0.0   10000 
Thu 21:00    E 13/ 17  22.0 16.9  1015.6    0.0   0.0  ----   0.0   10000 
Thu 21:30  ESE 15/ 20  21.6 17.0  1015.7    0.0   0.0   0.0   0.0   10000 
Thu 22:00    E 13/ 17  21.3 17.1  1015.8    0.0   0.0   0.0   0.0   10000 
Thu 22:30    E 11/ 15  21.0 17.0  1015.8    0.0   0.0   0.0   0.0   10000 
Thu 23:00    E  9/ 13  20.7 16.9  1015.8    0.0   0.0   0.0   0.0   10000 
Thu 23:30    E  9/ 11  20.4 17.0  1015.7    0.0   0.0   0.0   0.0   10000 

MANGROVE MOUNTAIN AWS

Site: 061375
Alt: 305.0m
19km NW of GOSFORD


  Time     Wind        Temp  DP   Baro     Rain since   Rain past  Vis(m), Cloud(base in m), Weather
  local        km/h                         9am  last   hr   10m    
Thu 18:00    E 11/ 20  22.3 13.1  ------    0.0   0.0   0.0   0.0   ----- 
Thu 18:30  ENE  7/ 15  22.2 14.1  ------    0.0   0.0   0.0   0.0   ----- 
Thu 19:00    E 11/ 19  21.4 14.6  ------    0.0   0.0   0.0   0.0   ----- 
Thu 19:30    E  9/ 19  20.6 14.9  ------    0.0   0.0   0.0   0.0   ----- 
Thu 20:30  ENE 11/ 19  20.0 15.0  ------    0.0   0.0   0.0   0.0   ----- 
Thu 21:00  ENE 11/ 20  19.8 15.4  ------    0.0   0.0  ----   0.0   ----- 
Thu 21:30  ENE  9/ 17  19.4 15.5  ------    0.0   0.0   0.0   0.0   ----- 
Thu 22:00  ENE  7/ 15  19.0 15.5  ------    0.0   0.0   0.0   0.0   ----- 
Thu 22:30  ENE  7/ 13  18.8 15.7  ------    0.0   0.0   0.0   0.0   ----- 
Thu 23:00  ENE  7/ 15  18.6 15.7  ------    0.0   0.0   0.0   0.0   ----- 
Thu 23:30  ENE  7/ 13  18.5 15.6  ------    0.0   0.0   0.0   0.0   ----- 

MERRIWA (ROSCOMMON)

Site: 061287
Alt: 375.0m
68km W of MUSWELLBROOK


  Time     Wind        Temp  DP   Baro     Rain since   Rain past  Vis(m), Cloud(base in m), Weather
  local        km/h                         9am  last   hr   10m    
Thu 18:00    E 24/ 33  27.7  9.0  1013.8    0.0   0.0   0.0   0.0   ----- 
Thu 18:30    E 24/ 33  26.5 10.6  1013.9    0.0   0.0   0.0   0.0   ----- 
Thu 19:00    E 20/ 30  25.9 10.9  1014.1    0.0   0.0   0.0   0.0   ----- 
Thu 19:30    E 20/ 28  24.6 10.8  1014.5    0.0   0.0   0.0   0.0   ----- 
Thu 20:30    E 19/ 26  23.2 11.6  1015.3    0.0   0.0   0.0   0.0   ----- 
Thu 21:00    E 17/ 22  22.5 11.9  1015.4    0.0   0.0  ----   0.0   ----- 
Thu 21:30    E 11/ 15  20.9 11.8  1015.8    0.0   0.0   0.0   0.0   ----- 
Thu 22:00    E 17/ 20  20.7 12.9  1015.9    0.0   0.0   0.0   0.0   ----- 
Thu 22:30    E 13/ 19  19.9 13.1  1016.0    0.0   0.0   0.0   0.0   ----- 
Thu 23:00    E 11/ 17  19.4 13.3  1016.1    0.0   0.0   0.0   0.0   ----- 
Thu 23:30    E 13/ 17  19.3 13.7  1016.2    0.0   0.0   0.0   0.0   ----- 

MURRURUNDI GAP AWS

Site: 061392
Alt: 729.4m
59km N of MUSWELLBROOK


  Time     Wind        Temp  DP   Baro     Rain since   Rain past  Vis(m), Cloud(base in m), Weather
  local        km/h                         9am  last   hr   10m    
Thu 18:00  SSE 24/ 35  24.4  9.2  1015.1    0.0   0.0   0.0   0.0   10000 
Thu 18:30  SSE 24/ 39  23.6  9.6  1015.1    0.0   0.0   0.0   0.0   10000 
Thu 19:00  SSE 26/ 35  22.9 10.3  1015.2    0.0   0.0   0.0   0.0   10000 
Thu 19:30   SE 24/ 35  22.3 11.1  1015.5    0.0   0.0   0.0   0.0   10000 
Thu 20:30  SSE 32/ 39  20.9 11.5  1016.0    0.0   0.0   0.0   0.0   10000 
Thu 21:00  SSE 30/ 43  20.1 11.8  1016.4    0.0   0.0  ----   0.0   10000 
Thu 21:30  SSE 30/ 39  19.6 12.4  1016.4    0.0   0.0   0.0   0.0   10000 
Thu 22:00  SSE 30/ 37  19.5 12.5  1016.7    0.0   0.0   0.0   0.0   10000 
Thu 22:30   SE 30/ 37  18.9 12.6  1016.8    0.0   0.0   0.0   0.0   10000 
Thu 23:00   SE 32/ 39  18.8 13.0  1016.8    0.0   0.0   0.0   0.0   10000 
Thu 23:30   SE 26/ 33  18.1 13.2  1016.9    0.0   0.0   0.0   0.0   10000 

NEWCASTLE NOBBYS SIGNAL STATION AWS

Site: 061055
Alt: 33.0m
2km NE of NEWCASTLE


  Time     Wind        Temp  DP   Baro     Rain since   Rain past  Vis(m), Cloud(base in m), Weather
  local        km/h                         9am  last   hr   10m    
Thu 18:00  ENE 28/ 35  23.5 16.5  ------    0.0   0.0   0.0   0.0   ----- 
Thu 18:30  ENE 22/ 33  23.5 16.8  ------    0.0   0.0   0.0   0.0   ----- 
Thu 19:00  ENE 22/ 32  23.1 17.6  ------    0.0   0.0   0.0   0.0   ----- 
Thu 19:30   NE 24/ 35  22.9 17.4  ------    0.0   0.0   0.0   0.0   ----- 
Thu 20:30  ENE 22/ 30  22.7 17.4  ------    0.0   0.0   0.0   0.0   ----- 
Thu 21:00  ENE 17/ 24  22.6 17.7  ------    0.0   0.0  ----   0.0   ----- 
Thu 21:30   NE 22/ 28  22.6 17.9  ------    0.0   0.0   0.0   0.0   ----- 
Thu 22:00   NE 20/ 30  22.6 18.4  ------    0.0   0.0   0.0   0.0   ----- 
Thu 22:30   NE 22/ 30  22.3 17.7  ------    0.0   0.0   0.0   0.0   ----- 
Thu 23:00   NE 22/ 28  22.4 18.0  ------    0.0   0.0   0.0   0.0   ----- 
Thu 23:30   NE 20/ 26  22.3 17.9  ------    0.0   0.0   0.0   0.0   ----- 

NORAH HEAD AWS

Site: 061366
Alt: 18.8m
27km NE of GOSFORD


  Time     Wind        Temp  DP   Baro     Rain since   Rain past  Vis(m), Cloud(base in m), Weather
  local        km/h                         9am  last   hr   10m    
Thu 18:00   NE 24/ 30  24.0 17.3  1015.2    0.0   0.0   0.0   0.0   ----- 
Thu 18:30   NE 26/ 32  23.5 17.9  1015.1    0.0   0.0   0.0   0.0   ----- 
Thu 19:00   NE 28/ 35  23.1 17.8  1015.3    0.0   0.0   0.0   0.0   ----- 
Thu 19:30   NE 32/ 39  22.9 18.0  1015.4    0.0   0.0   0.0   0.0   ----- 
Thu 20:30   NE 33/ 39  22.7 18.7  1016.0    0.0   0.0   0.0   0.0   ----- 
Thu 21:00  NNE 30/ 37  22.6 18.8  1016.3    0.0   0.0  ----   0.0   ----- 
Thu 21:30  NNE 35/ 41  22.6 18.2  1016.3    0.0   0.0   0.0   0.0   ----- 
Thu 22:00  NNE 33/ 39  22.5 18.7  1016.3    0.0   0.0   0.0   0.0   ----- 
Thu 22:30  NNE 33/ 39  22.8 19.4  1016.5    0.0   0.0   0.0   0.0   ----- 
Thu 23:00  NNE 35/ 41  22.6 18.8  1016.3    0.0   0.0   0.0   0.0   ----- 
Thu 23:30  NNE 33/ 39  22.5 18.9  1016.2    0.0   0.0   0.0   0.0   ----- 

PATERSON (TOCAL AWS)

Site: 061250
Alt: 30.0m
38km NNW of NEWCASTLE


  Time     Wind        Temp  DP   Baro     Rain since   Rain past  Vis(m), Cloud(base in m), Weather
  local        km/h                         9am  last   hr   10m    
Thu 18:00    E 22/ 35  26.2 14.5  ------    0.0   0.0   0.0   0.0   ----- 
Thu 18:30    E 20/ 30  25.3 14.2  ------    0.0   0.0   0.0   0.0   ----- 
Thu 19:00    E 15/ 24  24.6 14.9  ------    0.0   0.0   0.0   0.0   ----- 
Thu 19:30    E 13/ 24  23.7 15.2  ------    0.0   0.0   0.0   0.0   ----- 
Thu 20:30    E 13/ 17  23.1 15.2  ------    0.0   0.0   0.0   0.0   ----- 
Thu 21:00    E 13/ 22  22.6 15.4  ------    0.0   0.0  ----   0.0   ----- 
Thu 21:30    E 13/ 20  22.6 15.4  ------    0.0   0.0   0.0   0.0   ----- 
Thu 22:00    E 15/ 22  22.4 15.2  ------    0.0   0.0   0.0   0.0   ----- 
Thu 22:30    E 13/ 17  22.1 15.0  ------    0.0   0.0   0.0   0.0   ----- 
Thu 23:00    E  9/ 17  21.7 15.1  ------    0.0   0.0   0.0   0.0   ----- 
Thu 23:30    E  9/ 19  21.6 15.4  ------    0.0   0.0   0.0   0.0   ----- 

SCONE AIRPORT AWS

Site: 061363
Alt: 221.4m
26km NNW of MUSWELLBROOK


  Time     Wind        Temp  DP   Baro     Rain since   Rain past  Vis(m), Cloud(base in m), Weather
  local        km/h                         9am  last   hr   10m    
Thu 18:00    S 28/ 35  28.4  9.6  1012.4    0.0   0.0   0.0   0.0   ----- 
Thu 18:30  SSE 22/ 30  28.1 10.3  1012.7    0.0   0.0   0.0   0.0   ----- 
Thu 19:00  SSE 28/ 37  26.6 11.5  1013.0    0.0   0.0   0.0   0.0   ----- 
Thu 19:30    S 32/ 41  25.0 12.2  1013.3    0.0   0.0   0.0   0.0   ----- 
Thu 20:30    S 28/ 33  23.6 13.5  1014.0    0.0   0.0   0.0   0.0   ----- 
Thu 21:00    S 24/ 32  23.1 14.1  1014.4    0.0   0.0  ----   0.0   ----- 
Thu 21:30    S 22/ 28  22.8 14.1  1014.5    0.0   0.0   0.0   0.0   ----- 
Thu 22:00    S 20/ 24  22.1 14.0  1014.7    0.0   0.0   0.0   0.0   ----- 
Thu 22:30    S 19/ 22  21.7 14.1  1014.8    0.0   0.0   0.0   0.0   ----- 
Thu 23:00    S 20/ 24  21.3 14.2  1014.9    0.0   0.0   0.0   0.0   ----- 
Thu 23:30    S 20/ 26  20.7 14.1  1014.8    0.0   0.0   0.0   0.0   ----- 

SINGLETON (DEFENCE)

Site: 061430
Alt: 125.0m
km of


  Time     Wind        Temp  DP   Baro     Rain since   Rain past  Vis(m), Cloud(base in m), Weather
  local        km/h                         9am  last   hr   10m    
Thu 18:00   SE 22/ 32  25.8 13.3  ------    0.0   0.0   0.0   0.0   ----- 
Thu 18:30   SE 20/ 30  24.9 13.5  ------    0.0   0.0   0.0   0.0   ----- 
Thu 19:00   SE 22/ 32  24.7 13.9  ------    0.0   0.0   0.0   0.0   ----- 
Thu 19:30  ESE 24/ 33  23.8 14.2  ------    0.0   0.0   0.0   0.0   ----- 
Thu 20:30  ESE 20/ 26  22.7 14.5  ------    0.0   0.0   0.0   0.0   ----- 
Thu 21:00  ESE 20/ 28  22.3 14.4  ------    0.0   0.0  ----   0.0   ----- 
Thu 21:30  ESE 20/ 28  21.9 14.8  ------    0.0   0.0   0.0   0.0   ----- 
Thu 22:00  ESE 20/ 28  21.6 15.0  ------    0.0   0.0   0.0   0.0   ----- 
Thu 22:30  ESE 17/ 22  21.3 14.9  ------    0.0   0.0   0.0   0.0   ----- 
Thu 23:00  ESE 19/ 28  21.1 15.0  ------    0.0   0.0   0.0   0.0   ----- 
Thu 23:30  ESE 19/ 26  20.9 15.0  ------    0.0   0.0   0.0   0.0   ----- 

WILLIAMTOWN RAAF

Site: 061078
Alt: 7.5m
16km NNE of NEWCASTLE


  Time     Wind        Temp  DP   Baro     Rain since   Rain past  Vis(m), Cloud(base in m), Weather
  local        km/h                         9am  last   hr   10m    
Thu 18:00  ENE 30/ 41  24.6 14.4  1014.4    0.0   0.0   0.0   0.0   10000 
Thu 18:17  ENE 28/ 46  24.6 14.7  1014.4    0.0   0.0  ----   0.0   10000 
Thu 18:17  ENE 28/ 46  24.6 14.7  1014.4    0.0   0.0  ----   0.0   10000 
Thu 18:30  ENE 28/ 37  24.5 14.9  1014.7    0.0   0.0   0.0   0.0   10000 
Thu 19:00  ENE 24/ 35  24.0 15.8  1014.8    0.0   0.0   0.0   0.0   10000 
Thu 19:30  ENE 17/ 24  23.4 15.5  1015.2    0.0   0.0   0.0   0.0   10000 
Thu 20:30   NE 17/ 26  23.0 15.6  1015.7    0.0   0.0   0.0   0.0   10000 
Thu 21:00  ENE 13/ 19  22.6 15.9  1016.2    0.0   0.0  ----   0.0   10000 
Thu 21:30  ENE 13/ 17  22.0 16.1  1016.2    0.0   0.0   0.0   0.0   10000 
Thu 22:00   NE 15/ 20  21.8 16.3  1016.1    0.0   0.0   0.0   0.0   10000 
Thu 22:30   NE 11/ 17  21.6 16.6  1016.2    0.0   0.0   0.0   0.0   10000 
Thu 23:00   NE 17/ 24  21.8 16.3  1016.1    0.0   0.0   0.0   0.0   10000 
Thu 23:30   NE 15/ 26  21.7 16.0  1016.0    0.0   0.0   0.0   0.0   10000